createdAt,value
2017-03-03T00:00:43.035Z,0
2017-03-03T00:01:52.922Z,0
2017-03-03T00:03:03.244Z,0
2017-03-03T00:04:13.537Z,0
2017-03-03T00:05:23.469Z,0
2017-03-03T00:06:33.609Z,0
2017-03-03T00:07:43.115Z,0
2017-03-03T00:08:52.629Z,0
2017-03-03T00:10:02.500Z,0
2017-03-03T00:11:12.763Z,0
2017-03-03T00:12:23.382Z,0
2017-03-03T00:13:33.285Z,0
2017-03-03T00:14:43.256Z,0
2017-03-03T00:15:53.646Z,0
2017-03-03T00:17:03.204Z,0
2017-03-03T00:18:13.387Z,0
2017-03-03T00:19:23.684Z,0
2017-03-03T00:20:33.608Z,0
2017-03-03T00:21:43.883Z,0
2017-03-03T00:22:53.778Z,0
2017-03-03T00:24:04.404Z,0
2017-03-03T00:25:14.306Z,0
2017-03-03T00:26:24.611Z,0
2017-03-03T00:27:34.541Z,0
2017-03-03T00:28:44.005Z,0
2017-03-03T00:29:54.133Z,0
2017-03-03T00:31:04.456Z,0
2017-03-03T00:32:14.828Z,0
2017-03-03T00:33:24.715Z,0
2017-03-03T00:34:34.978Z,0
2017-03-03T00:35:45.601Z,0
2017-03-03T00:36:55.933Z,0
2017-03-03T00:38:06.222Z,0
2017-03-03T00:39:15.706Z,0
2017-03-03T00:40:26.025Z,0
2017-03-03T00:41:36.580Z,0
2017-03-03T00:42:46.901Z,0
2017-03-03T00:43:57.205Z,0
2017-03-03T00:45:07.684Z,0
2017-03-03T00:46:17.620Z,0
2017-03-03T00:47:28.245Z,0
2017-03-03T00:48:38.573Z,0
2017-03-03T00:49:48.463Z,0
2017-03-03T00:50:58.760Z,0
2017-03-03T00:52:09.054Z,0
2017-03-03T00:53:19.640Z,0
2017-03-03T00:54:29.969Z,0
2017-03-03T00:55:39.842Z,0
2017-03-03T00:56:50.203Z,0
2017-03-03T00:58:00.086Z,0
2017-03-03T00:59:10.219Z,0
2017-03-03T01:00:20.132Z,0
2017-03-03T01:01:30.437Z,0
2017-03-03T01:02:40.866Z,0
2017-03-03T01:03:50.770Z,0
2017-03-03T01:05:01.345Z,0
2017-03-03T01:06:11.650Z,0
2017-03-03T01:07:21.959Z,0
2017-03-03T01:08:31.463Z,0
2017-03-03T01:09:41.331Z,0
2017-03-03T01:10:51.908Z,0
2017-03-03T01:12:02.240Z,0
2017-03-03T01:13:12.510Z,0
2017-03-03T01:14:22.884Z,0
2017-03-03T01:15:33.145Z,0
2017-03-03T01:16:42.992Z,0
2017-03-03T01:17:52.875Z,0
2017-03-03T01:19:03.188Z,0
2017-03-03T01:20:13.538Z,0
2017-03-03T01:21:23.810Z,0
2017-03-03T01:22:34.365Z,0
2017-03-03T01:23:44.669Z,0
2017-03-03T01:24:54.591Z,0
2017-03-03T01:26:04.481Z,0
2017-03-03T01:27:14.780Z,0
2017-03-03T01:28:24.975Z,0
2017-03-03T01:29:34.935Z,0
2017-03-03T01:30:45.264Z,0
2017-03-03T01:31:55.585Z,0
2017-03-03T01:33:05.531Z,0
2017-03-03T01:34:15.784Z,0
2017-03-03T01:35:26.123Z,0
2017-03-03T01:36:36.443Z,0
2017-03-03T01:37:46.774Z,0
2017-03-03T01:38:56.661Z,0
2017-03-03T01:40:07.250Z,0
2017-03-03T01:41:17.601Z,0
2017-03-03T01:42:27.931Z,0
2017-03-03T01:43:38.702Z,0
2017-03-03T01:44:48.983Z,0
2017-03-03T01:45:59.244Z,0
2017-03-03T01:47:09.128Z,0
2017-03-03T01:48:19.449Z,0
2017-03-03T01:49:29.806Z,0
2017-03-03T01:50:39.666Z,0
2017-03-03T01:51:49.394Z,0
2017-03-03T01:52:59.311Z,0
2017-03-03T01:54:09.233Z,0
2017-03-03T01:55:19.521Z,0
2017-03-03T01:56:29.429Z,0
2017-03-03T01:57:40.011Z,0
2017-03-03T01:58:50.295Z,0
2017-03-03T02:00:00.587Z,0
2017-03-03T02:01:10.442Z,0
2017-03-03T02:02:20.750Z,0
2017-03-03T02:03:31.395Z,0
2017-03-03T02:04:41.250Z,0
2017-03-03T02:05:51.122Z,0
2017-03-03T02:07:01.107Z,0
2017-03-03T02:08:11.388Z,0
2017-03-03T02:09:21.932Z,0
2017-03-03T02:10:32.180Z,0
2017-03-03T02:11:42.057Z,0
2017-03-03T02:12:52.331Z,0
2017-03-03T02:14:02.638Z,0
2017-03-03T02:15:12.804Z,0
2017-03-03T02:16:23.168Z,0
2017-03-03T02:17:33.528Z,0
2017-03-03T02:18:43.405Z,0
2017-03-03T02:19:53.755Z,0
2017-03-03T02:21:04.006Z,0
2017-03-03T02:22:13.487Z,0
2017-03-03T02:23:23.379Z,0
2017-03-03T02:24:33.396Z,0
2017-03-03T02:25:43.886Z,0
2017-03-03T02:26:54.497Z,0
2017-03-03T02:28:04.778Z,0
2017-03-03T02:29:14.323Z,0
2017-03-03T02:30:24.222Z,0
2017-03-03T02:31:34.630Z,0
2017-03-03T02:32:45.149Z,0
2017-03-03T02:33:54.653Z,0
2017-03-03T02:35:05.004Z,0
2017-03-03T02:36:14.926Z,0
2017-03-03T02:37:24.912Z,0
2017-03-03T02:38:35.439Z,0
2017-03-03T02:39:45.777Z,0
2017-03-03T02:40:56.070Z,0
2017-03-03T02:42:06.350Z,0
2017-03-03T02:43:16.681Z,0
2017-03-03T02:44:27.193Z,0
2017-03-03T02:45:37.469Z,0
2017-03-03T02:46:47.382Z,0
2017-03-03T02:47:57.684Z,0
2017-03-03T02:49:07.587Z,0
2017-03-03T02:50:17.356Z,0
2017-03-03T02:51:27.620Z,0
2017-03-03T02:52:38.065Z,0
2017-03-03T02:53:48.359Z,0
2017-03-03T02:54:58.296Z,0
2017-03-03T02:56:08.503Z,0
2017-03-03T02:57:18.790Z,0
2017-03-03T02:58:29.068Z,0
2017-03-03T02:59:39.374Z,0
2017-03-03T03:00:49.666Z,0
2017-03-03T03:02:00.244Z,0
2017-03-03T03:03:10.588Z,0
2017-03-03T03:04:20.888Z,0
2017-03-03T03:05:31.161Z,0
2017-03-03T03:06:41.513Z,0
2017-03-03T03:07:52.073Z,0
2017-03-03T03:09:02.402Z,0
2017-03-03T03:10:12.313Z,0
2017-03-03T03:11:22.628Z,0
2017-03-03T03:12:32.976Z,0
2017-03-03T03:13:43.560Z,0
2017-03-03T03:14:53.883Z,0
2017-03-03T03:16:04.261Z,0
2017-03-03T03:17:14.191Z,0
2017-03-03T03:18:24.465Z,0
2017-03-03T03:19:34.208Z,0
2017-03-03T03:20:44.108Z,0
2017-03-03T03:21:53.621Z,0
2017-03-03T03:23:03.986Z,0
2017-03-03T03:24:14.300Z,0
2017-03-03T03:25:24.493Z,0
2017-03-03T03:26:34.829Z,0
2017-03-03T03:27:45.183Z,0
2017-03-03T03:28:55.562Z,0
2017-03-03T03:30:05.464Z,0
2017-03-03T03:31:15.635Z,0
2017-03-03T03:32:25.920Z,0
2017-03-03T03:33:36.254Z,0
2017-03-03T03:34:46.619Z,0
2017-03-03T03:35:56.499Z,0
2017-03-03T03:37:06.755Z,0
2017-03-03T03:38:16.616Z,0
2017-03-03T03:39:27.061Z,0
2017-03-03T03:40:37.393Z,0
2017-03-03T03:41:47.315Z,0
2017-03-03T03:42:57.881Z,0
2017-03-03T03:44:07.753Z,0
2017-03-03T03:45:18.050Z,0
2017-03-03T03:46:28.336Z,0
2017-03-03T03:47:38.211Z,0
2017-03-03T03:48:47.923Z,0
2017-03-03T03:49:57.772Z,0
2017-03-03T03:51:08.078Z,0
2017-03-03T03:52:18.377Z,0
2017-03-03T03:53:28.694Z,0
2017-03-03T03:54:38.850Z,0
2017-03-03T03:55:48.760Z,0
2017-03-03T03:56:59.152Z,0
2017-03-03T03:58:09.519Z,0
2017-03-03T03:59:19.802Z,0
2017-03-03T04:00:30.317Z,0
2017-03-03T04:01:40.669Z,0
2017-03-03T04:02:51.067Z,0
2017-03-03T04:04:01.345Z,0
2017-03-03T04:05:10.816Z,0
2017-03-03T04:06:21.382Z,0
2017-03-03T04:07:31.660Z,0
2017-03-03T04:08:41.656Z,0
2017-03-03T04:09:51.963Z,0
2017-03-03T04:11:02.227Z,0
2017-03-03T04:12:12.369Z,0
2017-03-03T04:13:22.696Z,0
2017-03-03T04:14:33.006Z,0
2017-03-03T04:15:43.304Z,0
2017-03-03T04:16:53.625Z,0
2017-03-03T04:18:04.177Z,0
2017-03-03T04:19:14.435Z,0
2017-03-03T04:20:24.332Z,0
2017-03-03T04:21:34.225Z,0
2017-03-03T04:22:44.570Z,0
2017-03-03T04:23:55.256Z,0
2017-03-03T04:25:05.818Z,0
2017-03-03T04:26:16.134Z,0
2017-03-03T04:27:26.382Z,0
2017-03-03T04:28:36.281Z,0
2017-03-03T04:29:47.189Z,0
2017-03-03T04:30:57.441Z,0
2017-03-03T04:32:07.693Z,0
2017-03-03T04:33:17.151Z,0
2017-03-03T04:34:27.282Z,0
2017-03-03T04:35:37.436Z,0
2017-03-03T04:36:46.497Z,0
2017-03-03T04:37:56.799Z,0
2017-03-03T04:39:07.090Z,0
2017-03-03T04:40:17.049Z,0
2017-03-03T04:41:27.211Z,0
2017-03-03T04:42:37.531Z,0
2017-03-03T04:43:47.811Z,0
2017-03-03T04:44:58.107Z,0
2017-03-03T04:46:08.416Z,0
2017-03-03T04:47:18.948Z,0
2017-03-03T04:48:28.523Z,0
2017-03-03T04:49:38.801Z,0
2017-03-03T04:50:48.787Z,0
2017-03-03T04:51:59.090Z,0
2017-03-03T04:53:09.233Z,0
2017-03-03T04:54:19.555Z,0
2017-03-03T04:55:29.846Z,0
2017-03-03T04:56:40.133Z,0
2017-03-03T04:57:50.026Z,0
2017-03-03T04:58:59.781Z,0
2017-03-03T05:00:10.047Z,0
2017-03-03T05:01:20.536Z,0
2017-03-03T05:02:30.861Z,0
2017-03-03T05:03:41.190Z,0
2017-03-03T05:04:51.408Z,0
2017-03-03T05:06:01.852Z,0
2017-03-03T05:07:11.746Z,0
2017-03-03T05:08:21.619Z,0
2017-03-03T05:09:31.938Z,0
2017-03-03T05:10:42.064Z,0
2017-03-03T05:11:52.370Z,0
2017-03-03T05:13:02.244Z,0
2017-03-03T05:14:12.675Z,0
2017-03-03T05:15:21.752Z,0
2017-03-03T05:16:32.314Z,0
2017-03-03T05:17:42.255Z,0
2017-03-03T05:18:52.128Z,0
2017-03-03T05:20:01.728Z,0
2017-03-03T05:21:12.009Z,0
2017-03-03T05:22:22.575Z,4
2017-03-03T05:23:32.878Z,4
2017-03-03T05:24:42.863Z,0
2017-03-03T05:25:52.735Z,4
2017-03-03T05:27:02.620Z,4
2017-03-03T05:28:13.197Z,4
2017-03-03T05:29:23.088Z,4
2017-03-03T05:30:32.966Z,4
2017-03-03T05:31:43.319Z,8
2017-03-03T05:32:53.668Z,8
2017-03-03T05:34:04.185Z,16
2017-03-03T05:35:14.451Z,12
2017-03-03T05:36:24.773Z,16
2017-03-03T05:37:35.253Z,24
2017-03-03T05:38:45.529Z,28
2017-03-03T05:39:56.133Z,36
2017-03-03T05:41:06.492Z,44
2017-03-03T05:42:16.419Z,52
2017-03-03T05:43:26.771Z,68
2017-03-03T05:44:37.101Z,80
2017-03-03T05:45:47.621Z,92
2017-03-03T05:46:57.550Z,112
2017-03-03T05:48:07.824Z,132
2017-03-03T05:49:17.737Z,156
2017-03-03T05:50:28.133Z,180
2017-03-03T05:51:38.720Z,216
2017-03-03T05:52:48.647Z,248
2017-03-03T05:53:59.056Z,280
2017-03-03T05:55:09.348Z,308
2017-03-03T05:56:19.642Z,344
2017-03-03T05:57:29.828Z,380
2017-03-03T05:58:39.680Z,436
2017-03-03T05:59:49.959Z,492
2017-03-03T06:01:00.493Z,564
2017-03-03T06:02:10.808Z,636
2017-03-03T06:03:21.367Z,704
2017-03-03T06:04:31.404Z,760
2017-03-03T06:05:41.748Z,812
2017-03-03T06:06:52.162Z,864
2017-03-03T06:08:02.545Z,924
2017-03-03T06:09:13.184Z,972
2017-03-03T06:10:23.120Z,1020
2017-03-03T06:11:33.517Z,1068
2017-03-03T06:12:43.777Z,1132
2017-03-03T06:13:54.087Z,1212
2017-03-03T06:15:04.633Z,1288
2017-03-03T06:16:14.547Z,1352
2017-03-03T06:17:24.339Z,1404
2017-03-03T06:18:34.621Z,1456
2017-03-03T06:19:45.037Z,1496
2017-03-03T06:20:55.635Z,1544
2017-03-03T06:22:05.919Z,1624
2017-03-03T06:23:16.187Z,1724
2017-03-03T06:24:26.483Z,1836
2017-03-03T06:25:36.839Z,1940
2017-03-03T06:26:47.392Z,2040
2017-03-03T06:27:57.752Z,2156
2017-03-03T06:29:07.636Z,2248
2017-03-03T06:30:17.955Z,2296
2017-03-03T06:31:28.249Z,2328
2017-03-03T06:32:38.849Z,2376
2017-03-03T06:33:49.151Z,2420
2017-03-03T06:34:59.447Z,2480
2017-03-03T06:36:09.735Z,2560
2017-03-03T06:37:20.135Z,2652
2017-03-03T06:38:30.676Z,2728
2017-03-03T06:39:40.972Z,2800
2017-03-03T06:40:51.260Z,2820
2017-03-03T06:42:01.140Z,2884
2017-03-03T06:43:11.553Z,2956
2017-03-03T06:44:21.300Z,2996
2017-03-03T06:45:31.708Z,3008
2017-03-03T06:46:41.616Z,3008
2017-03-03T06:47:51.957Z,2972
2017-03-03T06:49:02.240Z,2980
2017-03-03T06:50:12.796Z,3036
2017-03-03T06:51:22.719Z,3044
2017-03-03T06:52:33.005Z,3068
2017-03-03T06:53:43.287Z,3128
2017-03-03T06:54:53.567Z,3224
2017-03-03T06:56:04.129Z,3324
2017-03-03T06:57:14.414Z,3428
2017-03-03T06:58:24.360Z,3512
2017-03-03T06:59:34.688Z,3672
2017-03-03T07:00:44.191Z,3844
2017-03-03T07:01:54.730Z,4008
2017-03-03T07:03:05.034Z,4152
2017-03-03T07:04:15.319Z,4308
2017-03-03T07:05:25.637Z,4452
2017-03-03T07:06:35.914Z,4560
2017-03-03T07:07:46.506Z,4688
2017-03-03T07:08:56.466Z,4776
2017-03-03T07:10:06.867Z,4852
2017-03-03T07:11:17.286Z,5116
2017-03-03T07:12:27.724Z,5408
2017-03-03T07:13:38.380Z,5516
2017-03-03T07:14:48.661Z,5936
2017-03-03T07:15:58.963Z,6052
2017-03-03T07:17:09.281Z,6220
2017-03-03T07:18:19.587Z,6220
2017-03-03T07:19:30.181Z,6520
2017-03-03T07:20:40.533Z,6760
2017-03-03T07:21:50.945Z,7028
2017-03-03T07:23:01.238Z,7216
2017-03-03T07:24:11.520Z,7232
2017-03-03T07:25:22.044Z,7300
2017-03-03T07:26:32.084Z,7512
2017-03-03T07:27:42.386Z,7492
2017-03-03T07:28:52.815Z,7624
2017-03-03T07:30:03.047Z,7688
2017-03-03T07:31:13.203Z,7888
2017-03-03T07:32:23.501Z,7772
2017-03-03T07:33:33.495Z,7968
2017-03-03T07:34:43.526Z,7944
2017-03-03T07:35:53.826Z,8468
2017-03-03T07:37:04.382Z,8808
2017-03-03T07:38:14.694Z,9136
2017-03-03T07:39:25.053Z,10028
2017-03-03T07:40:35.500Z,10088
2017-03-03T07:41:45.799Z,12556
2017-03-03T07:42:56.401Z,14720
2017-03-03T07:44:07.446Z,14592
2017-03-03T07:45:18.073Z,13804
2017-03-03T07:46:29.059Z,11212
2017-03-03T07:47:40.083Z,13736
2017-03-03T07:48:51.347Z,14880
2017-03-03T07:50:02.367Z,13808
2017-03-03T07:51:13.370Z,11304
2017-03-03T07:52:24.483Z,15712
2017-03-03T07:53:35.517Z,16896
2017-03-03T07:54:46.818Z,17760
2017-03-03T07:55:57.865Z,17024
2017-03-03T07:57:08.549Z,17888
2017-03-03T07:58:19.583Z,19328
2017-03-03T07:59:30.204Z,20576
2017-03-03T08:00:40.665Z,16704
2017-03-03T08:01:51.276Z,18720
2017-03-03T08:03:01.873Z,20768
2017-03-03T08:04:13.062Z,21760
2017-03-03T08:05:23.258Z,23360
2017-03-03T08:06:34.519Z,25216
2017-03-03T08:07:44.301Z,20064
2017-03-03T08:08:54.909Z,23680
2017-03-03T08:10:05.592Z,24480
2017-03-03T08:11:16.730Z,23776
2017-03-03T08:12:28.041Z,21984
2017-03-03T08:13:39.088Z,17696
2017-03-03T08:14:50.143Z,17792
2017-03-03T08:16:00.700Z,16672
2017-03-03T08:17:11.816Z,15936
2017-03-03T08:18:22.716Z,14924
2017-03-03T08:19:32.653Z,13236
2017-03-03T08:20:43.028Z,12756
2017-03-03T08:21:53.325Z,11872
2017-03-03T08:23:03.662Z,12600
2017-03-03T08:24:13.453Z,15648
2017-03-03T08:25:23.780Z,18656
2017-03-03T08:26:34.127Z,19808
2017-03-03T08:27:44.124Z,20672
2017-03-03T08:28:54.428Z,19136
2017-03-03T08:30:04.774Z,21952
2017-03-03T08:31:15.089Z,21344
2017-03-03T08:32:25.401Z,19680
2017-03-03T08:33:35.882Z,14596
2017-03-03T08:34:46.183Z,16000
2017-03-03T08:35:56.313Z,12516
2017-03-03T08:37:06.604Z,12416
2017-03-03T08:38:16.900Z,15936
2017-03-03T08:39:27.244Z,22432
2017-03-03T08:40:38.273Z,37792
2017-03-03T08:41:48.749Z,41472
2017-03-03T08:42:59.420Z,46528
2017-03-03T08:44:10.448Z,39168
2017-03-03T08:45:21.125Z,43776
2017-03-03T08:46:32.217Z,49312
2017-03-03T08:47:43.212Z,52768
2017-03-03T08:48:54.282Z,38720
2017-03-03T08:50:05.393Z,46848
2017-03-03T08:51:16.490Z,53248
2017-03-03T08:52:27.199Z,51488
2017-03-03T08:53:38.585Z,51232
2017-03-03T08:54:49.664Z,47552
2017-03-03T08:56:00.732Z,49632
2017-03-03T08:57:11.877Z,47776
2017-03-03T08:58:22.599Z,47456
2017-03-03T08:59:34.225Z,44928
2017-03-03T09:00:45.247Z,53216
2017-03-03T09:01:56.327Z,50528
2017-03-03T09:03:07.380Z,46496
2017-03-03T09:04:17.203Z,50272
2017-03-03T09:05:28.595Z,53248
2017-03-03T09:06:39.699Z,58304
2017-03-03T09:07:49.973Z,64192
2017-03-03T09:09:01.114Z,58752
2017-03-03T09:10:11.696Z,66880
2017-03-03T09:11:23.213Z,64896
2017-03-03T09:12:34.198Z,59008
2017-03-03T09:13:45.299Z,54688
2017-03-03T09:14:56.452Z,58144
2017-03-03T09:16:07.062Z,66688
2017-03-03T09:17:18.391Z,63200
2017-03-03T09:18:29.428Z,57664
2017-03-03T09:19:40.077Z,61344
2017-03-03T09:20:51.134Z,49536
2017-03-03T09:22:02.225Z,45696
2017-03-03T09:23:13.504Z,41536
2017-03-03T09:24:23.693Z,53280
2017-03-03T09:25:34.768Z,62464
2017-03-03T09:26:45.404Z,59744
2017-03-03T09:27:56.106Z,56640
2017-03-03T09:29:06.660Z,55008
2017-03-03T09:30:17.174Z,55104
2017-03-03T09:31:28.317Z,52672
2017-03-03T09:32:38.551Z,62816
2017-03-03T09:33:49.711Z,69920
2017-03-03T09:35:01.027Z,51904
2017-03-03T09:36:12.063Z,57568
2017-03-03T09:37:22.677Z,63712
2017-03-03T09:38:33.206Z,73056
2017-03-03T09:39:44.048Z,75264
2017-03-03T09:40:54.928Z,58752
2017-03-03T09:42:05.992Z,67072
2017-03-03T09:43:16.618Z,70144
2017-03-03T09:44:27.321Z,68256
2017-03-03T09:45:37.984Z,60832
2017-03-03T09:46:49.420Z,54432
2017-03-03T09:48:00.507Z,42752
2017-03-03T09:49:11.548Z,46720
2017-03-03T09:50:21.645Z,46624
2017-03-03T09:51:32.273Z,42752
2017-03-03T09:52:42.750Z,43968
2017-03-03T09:53:53.908Z,52992
2017-03-03T09:55:04.971Z,54272
2017-03-03T09:56:16.012Z,58048
2017-03-03T09:57:27.095Z,67648
2017-03-03T09:58:37.949Z,67968
2017-03-03T09:59:49.043Z,70816
2017-03-03T10:00:59.561Z,73792
2017-03-03T10:02:10.193Z,56640
2017-03-03T10:03:21.222Z,54112
2017-03-03T10:04:32.522Z,53120
2017-03-03T10:05:43.585Z,42240
2017-03-03T10:06:54.640Z,42976
2017-03-03T10:08:05.666Z,44928
2017-03-03T10:09:16.710Z,47616
2017-03-03T10:10:28.147Z,52896
2017-03-03T10:11:39.238Z,62816
2017-03-03T10:12:49.882Z,62304
2017-03-03T10:14:00.962Z,67744
2017-03-03T10:15:11.550Z,61248
2017-03-03T10:16:22.823Z,62752
2017-03-03T10:17:33.470Z,58656
2017-03-03T10:18:44.129Z,77152
2017-03-03T10:19:55.248Z,80608
2017-03-03T10:21:06.335Z,75552
2017-03-03T10:22:17.584Z,74944
2017-03-03T10:23:28.650Z,68768
2017-03-03T10:24:39.724Z,66240
2017-03-03T10:25:50.761Z,69312
2017-03-03T10:27:01.794Z,73696
2017-03-03T10:28:13.132Z,72736
2017-03-03T10:29:24.156Z,69536
2017-03-03T10:30:35.178Z,72832
2017-03-03T10:31:45.752Z,68800
2017-03-03T10:32:56.482Z,66208
2017-03-03T10:34:07.832Z,86400
2017-03-03T10:35:18.861Z,83968
2017-03-03T10:36:29.890Z,68128
2017-03-03T10:37:40.958Z,73056
2017-03-03T10:38:51.713Z,80064
2017-03-03T10:40:02.955Z,65472
2017-03-03T10:41:13.959Z,70720
2017-03-03T10:42:24.579Z,73280
2017-03-03T10:43:35.641Z,60800
2017-03-03T10:44:46.154Z,77952
2017-03-03T10:45:57.452Z,80960
2017-03-03T10:47:08.508Z,72640
2017-03-03T10:48:19.567Z,70496
2017-03-03T10:49:30.215Z,71328
2017-03-03T10:50:41.230Z,65216
2017-03-03T10:51:51.712Z,73152
2017-03-03T10:53:02.731Z,80768
2017-03-03T10:54:13.737Z,69216
2017-03-03T10:55:24.381Z,79200
2017-03-03T10:56:35.028Z,79552
2017-03-03T10:57:45.908Z,70208
2017-03-03T10:58:56.945Z,70880
2017-03-03T11:00:08.002Z,76384
2017-03-03T11:01:18.652Z,75136
2017-03-03T11:02:29.716Z,71424
2017-03-03T11:03:41.019Z,51328
2017-03-03T11:04:51.663Z,47936
2017-03-03T11:06:02.823Z,54656
2017-03-03T11:07:13.866Z,50208
2017-03-03T11:08:25.100Z,50752
2017-03-03T11:09:36.112Z,46464
2017-03-03T11:10:46.519Z,43712
2017-03-03T11:11:56.964Z,40896
2017-03-03T11:13:06.848Z,39968
2017-03-03T11:14:17.224Z,41952
2017-03-03T11:15:27.396Z,45216
2017-03-03T11:16:37.805Z,44064
2017-03-03T11:17:47.710Z,47200
2017-03-03T11:18:57.847Z,51104
2017-03-03T11:20:08.241Z,52800
2017-03-03T11:21:19.070Z,60416
2017-03-03T11:22:28.956Z,58656
2017-03-03T11:23:39.267Z,65152
2017-03-03T11:24:49.602Z,59616
2017-03-03T11:25:59.972Z,57248
2017-03-03T11:27:10.570Z,62432
2017-03-03T11:28:20.908Z,53504
2017-03-03T11:29:30.857Z,57408
2017-03-03T11:30:41.164Z,69312
2017-03-03T11:31:51.079Z,66752
2017-03-03T11:33:01.249Z,66400
2017-03-03T11:34:11.184Z,65792
2017-03-03T11:35:21.505Z,66720
2017-03-03T11:36:31.504Z,74400
2017-03-03T11:37:41.831Z,71520
2017-03-03T11:38:52.618Z,65600
2017-03-03T11:40:02.528Z,61696
2017-03-03T11:41:12.838Z,65984
2017-03-03T11:42:22.326Z,77728
2017-03-03T11:43:32.661Z,70240
2017-03-03T11:44:42.921Z,59392
2017-03-03T11:45:52.445Z,57440
2017-03-03T11:47:02.769Z,61504
2017-03-03T11:48:12.342Z,57024
2017-03-03T11:49:21.420Z,62880
2017-03-03T11:50:31.619Z,58592
2017-03-03T11:51:41.919Z,55904
2017-03-03T11:52:52.248Z,47808
2017-03-03T11:54:02.579Z,55488
2017-03-03T11:55:12.953Z,53856
2017-03-03T11:56:23.543Z,55616
2017-03-03T11:57:33.933Z,61024
2017-03-03T11:58:44.231Z,63584
2017-03-03T11:59:54.632Z,58464
2017-03-03T12:01:04.598Z,52704
2017-03-03T12:02:15.358Z,52896
2017-03-03T12:03:25.278Z,54656
2017-03-03T12:04:35.664Z,55488
2017-03-03T12:05:45.971Z,50464
2017-03-03T12:06:56.275Z,51648
2017-03-03T12:08:06.856Z,45824
2017-03-03T12:09:17.148Z,50368
2017-03-03T12:10:27.055Z,47968
2017-03-03T12:11:37.462Z,49728
2017-03-03T12:12:47.760Z,53440
2017-03-03T12:13:58.384Z,61888
2017-03-03T12:15:08.674Z,61088
2017-03-03T12:16:18.984Z,57952
2017-03-03T12:17:29.333Z,60640
2017-03-03T12:18:39.706Z,61376
2017-03-03T12:19:50.569Z,56864
2017-03-03T12:21:00.929Z,47456
2017-03-03T12:22:11.319Z,48192
2017-03-03T12:23:21.635Z,48576
2017-03-03T12:24:31.152Z,35552
2017-03-03T12:25:40.973Z,42592
2017-03-03T12:26:50.491Z,49024
2017-03-03T12:28:00.384Z,46528
2017-03-03T12:29:10.363Z,56000
2017-03-03T12:30:20.686Z,48096
2017-03-03T12:31:30.868Z,43392
2017-03-03T12:32:40.434Z,44864
2017-03-03T12:33:50.758Z,48032
2017-03-03T12:35:01.142Z,50208
2017-03-03T12:36:11.463Z,56288
2017-03-03T12:37:21.254Z,62720
2017-03-03T12:38:31.563Z,53376
2017-03-03T12:39:41.476Z,51456
2017-03-03T12:40:51.023Z,56992
2017-03-03T12:42:01.413Z,61344
2017-03-03T12:43:11.964Z,54016
2017-03-03T12:44:22.114Z,43136
2017-03-03T12:45:32.407Z,42784
2017-03-03T12:46:42.317Z,43616
2017-03-03T12:47:52.230Z,48032
2017-03-03T12:49:02.849Z,44736
2017-03-03T12:50:13.230Z,47104
2017-03-03T12:51:23.538Z,45696
2017-03-03T12:52:33.847Z,43264
2017-03-03T12:53:44.169Z,42976
2017-03-03T12:54:54.408Z,36864
2017-03-03T12:56:04.771Z,37376
2017-03-03T12:57:15.107Z,40000
2017-03-03T12:58:25.078Z,39072
2017-03-03T12:59:35.465Z,39232
2017-03-03T13:00:46.037Z,40192
2017-03-03T13:01:55.991Z,41120
2017-03-03T13:03:05.914Z,39008
2017-03-03T13:04:16.418Z,43744
2017-03-03T13:05:26.835Z,47424
2017-03-03T13:06:37.026Z,48192
2017-03-03T13:07:46.940Z,45536
2017-03-03T13:08:56.982Z,44448
2017-03-03T13:10:07.315Z,46080
2017-03-03T13:11:17.665Z,41088
2017-03-03T13:12:27.896Z,43872
2017-03-03T13:13:38.273Z,53056
2017-03-03T13:14:47.808Z,50272
2017-03-03T13:15:57.725Z,43232
2017-03-03T13:17:07.642Z,40800
2017-03-03T13:18:18.413Z,38400
2017-03-03T13:19:28.438Z,36640
2017-03-03T13:20:38.771Z,33728
2017-03-03T13:21:49.159Z,31584
2017-03-03T13:22:58.692Z,30944
2017-03-03T13:24:08.839Z,29536
2017-03-03T13:25:19.277Z,26944
2017-03-03T13:26:29.609Z,25888
2017-03-03T13:27:39.977Z,25344
2017-03-03T13:28:49.580Z,24736
2017-03-03T13:29:59.785Z,23680
2017-03-03T13:31:09.726Z,23392
2017-03-03T13:32:20.070Z,23584
2017-03-03T13:33:30.416Z,22880
2017-03-03T13:34:40.785Z,22272
2017-03-03T13:35:50.551Z,20832
2017-03-03T13:37:00.534Z,20224
2017-03-03T13:38:10.928Z,19136
2017-03-03T13:39:21.340Z,18528
2017-03-03T13:40:31.795Z,17760
2017-03-03T13:41:41.952Z,17536
2017-03-03T13:42:52.377Z,16768
2017-03-03T13:44:02.765Z,15968
2017-03-03T13:45:13.112Z,15284
2017-03-03T13:46:23.434Z,15616
2017-03-03T13:47:34.170Z,15872
2017-03-03T13:48:44.155Z,16064
2017-03-03T13:49:54.107Z,16448
2017-03-03T13:51:04.429Z,17248
2017-03-03T13:52:14.354Z,17856
2017-03-03T13:53:24.546Z,18592
2017-03-03T13:54:34.880Z,18944
2017-03-03T13:55:45.281Z,19328
2017-03-03T13:56:55.250Z,19648
2017-03-03T13:58:05.580Z,19744
2017-03-03T13:59:16.213Z,19424
2017-03-03T14:00:26.122Z,19488
2017-03-03T14:01:36.498Z,19264
2017-03-03T14:02:47.019Z,19456
2017-03-03T14:03:57.345Z,19104
2017-03-03T14:05:07.912Z,17504
2017-03-03T14:06:18.244Z,16896
2017-03-03T14:07:28.552Z,15808
2017-03-03T14:08:38.453Z,15004
2017-03-03T14:09:48.385Z,14440
2017-03-03T14:10:58.945Z,13728
2017-03-03T14:12:09.243Z,13356
2017-03-03T14:13:19.176Z,13152
2017-03-03T14:14:28.687Z,12996
2017-03-03T14:15:38.961Z,12680
2017-03-03T14:16:49.128Z,12896
2017-03-03T14:17:59.174Z,13096
2017-03-03T14:19:09.095Z,12936
2017-03-03T14:20:18.565Z,13380
2017-03-03T14:21:28.868Z,13752
2017-03-03T14:22:39.008Z,14476
2017-03-03T14:23:49.384Z,14812
2017-03-03T14:24:59.771Z,14344
2017-03-03T14:26:09.716Z,14740
2017-03-03T14:27:20.031Z,15016
2017-03-03T14:28:30.657Z,14472
2017-03-03T14:29:40.952Z,14208
2017-03-03T14:30:50.027Z,13484
2017-03-03T14:31:59.935Z,12880
2017-03-03T14:33:09.442Z,12200
2017-03-03T14:34:20.053Z,11564
2017-03-03T14:35:29.976Z,11260
2017-03-03T14:36:40.291Z,10932
2017-03-03T14:37:49.795Z,10576
2017-03-03T14:38:59.787Z,10340
2017-03-03T14:40:10.343Z,10200
2017-03-03T14:41:20.666Z,9812
2017-03-03T14:42:30.984Z,9424
2017-03-03T14:43:40.886Z,9268
2017-03-03T14:44:51.172Z,9016
2017-03-03T14:46:01.360Z,8720
2017-03-03T14:47:11.671Z,8456
2017-03-03T14:48:22.013Z,8260
2017-03-03T14:49:32.558Z,8112
2017-03-03T14:50:43.100Z,8008
2017-03-03T14:51:53.373Z,7940
2017-03-03T14:53:02.860Z,7864
2017-03-03T14:54:12.750Z,7804
2017-03-03T14:55:22.698Z,7716
2017-03-03T14:56:31.353Z,7588
2017-03-03T14:57:41.491Z,7432
2017-03-03T14:58:51.921Z,7256
2017-03-03T15:00:01.430Z,7040
2017-03-03T15:01:11.730Z,6796
2017-03-03T15:02:22.095Z,6552
2017-03-03T15:03:32.415Z,6308
2017-03-03T15:04:42.773Z,6044
2017-03-03T15:05:53.061Z,5752
2017-03-03T15:07:03.495Z,5480
2017-03-03T15:08:13.392Z,5276
2017-03-03T15:09:23.998Z,5144
2017-03-03T15:10:33.888Z,5060
2017-03-03T15:11:44.254Z,5012
2017-03-03T15:12:54.556Z,5008
2017-03-03T15:14:04.053Z,5000
2017-03-03T15:15:13.514Z,4948
2017-03-03T15:16:23.427Z,4860
2017-03-03T15:17:33.377Z,4760
2017-03-03T15:18:43.272Z,4660
2017-03-03T15:19:53.590Z,4532
2017-03-03T15:21:04.077Z,4396
2017-03-03T15:22:14.151Z,4284
2017-03-03T15:23:24.154Z,4192
2017-03-03T15:24:34.441Z,4116
2017-03-03T15:25:45.042Z,4024
2017-03-03T15:26:55.372Z,3928
2017-03-03T15:28:05.626Z,3832
2017-03-03T15:29:15.539Z,3720
2017-03-03T15:30:25.843Z,3612
2017-03-03T15:31:35.984Z,3512
2017-03-03T15:33:18.070Z,3388
2017-03-03T15:34:28.352Z,3316
2017-03-03T15:35:38.648Z,3216
2017-03-03T15:36:50.857Z,3056
2017-03-03T15:38:01.209Z,2892
2017-03-03T15:39:11.729Z,2724
2017-03-03T15:40:22.026Z,2560
2017-03-03T15:41:32.372Z,2408
2017-03-03T15:42:42.961Z,2280
2017-03-03T15:43:52.837Z,2176
2017-03-03T15:45:03.142Z,2092
2017-03-03T15:46:13.040Z,2032
2017-03-03T15:47:23.325Z,1988
2017-03-03T15:48:33.100Z,1920
2017-03-03T15:49:43.388Z,1836
2017-03-03T15:50:53.759Z,1752
2017-03-03T15:52:03.683Z,1684
2017-03-03T15:53:13.158Z,1632
2017-03-03T15:54:23.826Z,1580
2017-03-03T15:55:33.730Z,1512
2017-03-03T15:56:44.024Z,1452
2017-03-03T15:57:53.911Z,1408